Time;durP1;ratioP1;P1;durP2;ratioP2;P2;SDS_P1;SDS_P2;PMS_P1;PMS_P2;Temp;Humidity;BMP_temperature;BMP_pressure;BME280_temperature;BME280_humidity;BME280_pressure;Samples;Min_cycle;Max_cycle;Signal;HPM_P1;HPM_P2
2022/03/24 00:00:32;;;;;;;17.27;9.27;;;;;;;;;;5033310;28;20029;-65
2022/03/24 00:02:58;;;;;;;16.60;9.48;;;;;;;;;;5032707;28;20485;-65
2022/03/24 00:05:23;;;;;;;17.42;9.30;;;;;;;;;;5032930;28;20516;-65
2022/03/24 00:07:49;;;;;;;16.52;9.00;;;;;;;;;;5031900;28;20370;-65
2022/03/24 00:10:14;;;;;;;14.52;8.52;;;;;;;;;;5033354;28;20535;-65
2022/03/24 00:12:40;;;;;;;16.50;9.38;;;;;;;;;;5032648;28;20052;-65
2022/03/24 00:15:07;;;;;;;17.23;8.60;;;;;;;;;;5033092;28;20116;-65
2022/03/24 00:17:33;;;;;;;15.88;8.55;;;;;;;;;;5032831;28;20112;-66
2022/03/24 00:19:59;;;;;;;15.30;8.70;;;;;;;;;;5032780;28;20030;-65
2022/03/24 00:22:24;;;;;;;16.08;8.52;;;;;;;;;;5032490;28;20489;-64
2022/03/24 00:24:50;;;;;;;15.27;8.32;;;;;;;;;;5032038;28;20057;-64
2022/03/24 00:27:15;;;;;;;20.85;8.70;;;;;;;;;;5032709;28;20032;-64
2022/03/24 00:29:42;;;;;;;17.40;8.93;;;;;;;;;;5032797;28;20040;-65
2022/03/24 00:32:08;;;;;;;13.00;8.07;;;;;;;;;;5032417;28;20029;-65
2022/03/24 00:34:33;;;;;;;15.25;8.27;;;;;;;;;;5032766;28;20044;-66
2022/03/24 00:36:59;;;;;;;16.35;7.95;;;;;;;;;;5032306;28;20026;-65
2022/03/24 00:39:24;;;;;;;15.13;8.05;;;;;;;;;;5032720;28;20029;-66
2022/03/24 00:41:49;;;;;;;13.95;8.00;;;;;;;;;;5032307;28;20033;-65
2022/03/24 00:44:15;;;;;;;14.18;7.80;;;;;;;;;;5032552;28;20511;-65
2022/03/24 00:46:40;;;;;;;17.35;8.40;;;;;;;;;;5032710;28;20029;-65
2022/03/24 00:49:05;;;;;;;14.88;8.13;;;;;;;;;;5032268;28;20045;-65
2022/03/24 00:51:31;;;;;;;15.25;8.10;;;;;;;;;;5032426;28;20067;-65
2022/03/24 00:53:56;;;;;;;13.50;7.72;;;;;;;;;;5031872;28;20408;-65
2022/03/24 00:56:23;;;;;;;15.05;8.10;;;;;;;;;;5032203;28;20101;-65
2022/03/24 00:58:49;;;;;;;16.15;8.48;;;;;;;;;;5031889;28;20033;-65
2022/03/24 01:01:15;;;;;;;15.30;7.90;;;;;;;;;;5032351;28;20109;-65
2022/03/24 01:03:42;;;;;;;14.43;8.13;;;;;;;;;;5031878;28;20067;-65
2022/03/24 01:06:09;;;;;;;16.50;8.50;;;;;;;;;;5031908;28;20056;-65
2022/03/24 01:08:35;;;;;;;15.60;8.02;;;;;;;;;;5032269;28;20481;-65
2022/03/24 01:11:01;;;;;;;14.80;8.10;;;;;;;;;;5032078;28;20083;-65
2022/03/24 01:13:28;;;;;;;14.48;7.95;;;;;;;;;;5031402;28;20037;-65
2022/03/24 01:15:55;;;;;;;13.60;8.13;;;;;;;;;;5031899;28;20381;-65
2022/03/24 01:18:20;;;;;;;12.65;7.25;;;;;;;;;;5031623;28;20060;-65
2022/03/24 01:20:46;;;;;;;15.02;7.90;;;;;;;;;;5031714;28;20613;-65
2022/03/24 01:23:12;;;;;;;13.80;7.15;;;;;;;;;;5031236;28;20056;-65
2022/03/24 01:25:41;;;;;;;11.45;7.00;;;;;;;;;;5031559;28;20527;-66
2022/03/24 01:28:07;;;;;;;14.00;7.72;;;;;;;;;;5031309;28;20029;-65
2022/03/24 01:30:33;;;;;;;15.77;7.35;;;;;;;;;;5031397;28;20029;-65
2022/03/24 01:32:58;;;;;;;14.70;7.25;;;;;;;;;;5030967;28;20381;-66
2022/03/24 01:35:24;;;;;;;14.05;7.35;;;;;;;;;;5030637;28;20029;-65
2022/03/24 01:37:49;;;;;;;13.20;7.03;;;;;;;;;;5031249;28;20477;-65
2022/03/24 01:40:16;;;;;;;14.68;7.13;;;;;;;;;;5031402;28;20029;-65
2022/03/24 01:42:43;;;;;;;14.50;7.07;;;;;;;;;;5031016;28;20017;-65
2022/03/24 01:45:09;;;;;;;12.93;7.28;;;;;;;;;;5031168;28;20021;-65
2022/03/24 01:47:35;;;;;;;12.35;6.55;;;;;;;;;;5030930;28;20485;-65
2022/03/24 01:50:03;;;;;;;10.93;6.30;;;;;;;;;;5031303;28;20032;-66
2022/03/24 01:52:29;;;;;;;10.98;6.30;;;;;;;;;;5030671;28;20084;-66
2022/03/24 01:54:56;;;;;;;12.88;6.30;;;;;;;;;;5031058;28;20041;-65
2022/03/24 01:57:23;;;;;;;10.85;6.13;;;;;;;;;;5030905;28;20503;-65
2022/03/24 01:59:49;;;;;;;12.80;6.25;;;;;;;;;;5030924;28;20048;-65
2022/03/24 02:02:15;;;;;;;12.10;6.20;;;;;;;;;;5030672;28;20018;-65
2022/03/24 02:04:42;;;;;;;11.18;6.15;;;;;;;;;;5030168;28;20374;-65
2022/03/24 02:07:08;;;;;;;13.20;6.13;;;;;;;;;;5030893;28;20029;-65
2022/03/24 02:09:36;;;;;;;12.63;6.10;;;;;;;;;;5030588;28;20033;-65
2022/03/24 02:12:03;;;;;;;12.75;5.72;;;;;;;;;;5031086;28;20496;-65
2022/03/24 02:14:29;;;;;;;10.00;6.07;;;;;;;;;;5030340;28;20512;-66
2022/03/24 02:16:56;;;;;;;10.77;6.22;;;;;;;;;;5030442;28;20026;-66
2022/03/24 02:19:23;;;;;;;11.18;6.13;;;;;;;;;;5030356;28;20030;-71
2022/03/24 02:21:51;;;;;;;10.93;6.13;;;;;;;;;;5030205;28;20037;-65
2022/03/24 02:24:19;;;;;;;10.80;6.18;;;;;;;;;;5030347;28;20109;-65
2022/03/24 02:26:46;;;;;;;13.10;7.00;;;;;;;;;;5030790;28;20057;-65
2022/03/24 02:29:13;;;;;;;13.90;6.47;;;;;;;;;;5028993;28;20147;-65
2022/03/24 02:31:43;;;;;;;13.77;6.93;;;;;;;;;;5030820;28;20021;-65
2022/03/24 02:36:55;;;;;;;12.00;6.80;;;;;;;;;;5030828;28;20508;-66
2022/03/24 02:39:21;;;;;;;16.58;7.60;;;;;;;;;;5030539;28;20025;-65
2022/03/24 02:41:55;;;;;;;16.92;8.10;;;;;;;;;;5030557;28;20540;-65
2022/03/24 02:44:22;;;;;;;14.32;8.10;;;;;;;;;;5030205;28;20247;-65
2022/03/24 02:46:48;;;;;;;21.27;8.38;;;;;;;;;;5030066;28;20423;-65
2022/03/24 02:49:15;;;;;;;14.95;8.27;;;;;;;;;;5030072;28;20373;-65
2022/03/24 02:51:41;;;;;;;16.52;8.20;;;;;;;;;;5030438;28;20041;-65
2022/03/24 02:54:08;;;;;;;16.15;8.10;;;;;;;;;;5030104;28;20092;-65
2022/03/24 02:56:34;;;;;;;14.15;7.68;;;;;;;;;;5030421;28;20072;-65
2022/03/24 02:59:00;;;;;;;17.27;7.63;;;;;;;;;;5030255;28;20026;-65
2022/03/24 03:01:26;;;;;;;13.13;7.20;;;;;;;;;;5030385;28;20076;-65
2022/03/24 03:03:54;;;;;;;14.05;7.38;;;;;;;;;;5029736;28;20388;-65
2022/03/24 03:06:20;;;;;;;14.02;7.07;;;;;;;;;;5028912;28;20475;-65
2022/03/24 03:08:47;;;;;;;12.98;7.07;;;;;;;;;;5030099;28;20033;-65
2022/03/24 03:11:13;;;;;;;13.88;6.60;;;;;;;;;;5030176;28;20026;-65
2022/03/24 03:13:38;;;;;;;13.45;7.10;;;;;;;;;;5029683;28;20029;-65
2022/03/24 03:16:04;;;;;;;11.73;6.60;;;;;;;;;;5030151;28;20033;-65
2022/03/24 03:18:32;;;;;;;11.40;6.50;;;;;;;;;;5029913;28;20483;-65
2022/03/24 03:20:59;;;;;;;16.30;6.60;;;;;;;;;;5029867;28;20112;-65
2022/03/24 03:23:25;;;;;;;15.82;7.10;;;;;;;;;;5029930;28;20037;-65
2022/03/24 03:25:50;;;;;;;10.65;5.80;;;;;;;;;;5030165;28;20030;-65
2022/03/24 03:28:16;;;;;;;11.40;6.50;;;;;;;;;;5029962;28;20203;-65
2022/03/24 03:30:43;;;;;;;13.25;6.43;;;;;;;;;;5029771;28;20021;-65
2022/03/24 03:33:09;;;;;;;11.13;6.30;;;;;;;;;;5029769;28;20029;-65
2022/03/24 03:35:34;;;;;;;12.98;6.45;;;;;;;;;;5029950;28;20027;-65
2022/03/24 03:37:59;;;;;;;11.55;6.32;;;;;;;;;;5029967;28;20032;-65
2022/03/24 03:40:25;;;;;;;12.02;6.00;;;;;;;;;;5029582;28;20021;-65
2022/03/24 03:42:51;;;;;;;12.65;6.30;;;;;;;;;;5029790;28;20030;-66
2022/03/24 03:45:17;;;;;;;10.30;6.03;;;;;;;;;;5029627;28;20400;-65
2022/03/24 03:47:42;;;;;;;10.98;6.03;;;;;;;;;;5029559;28;20469;-65
2022/03/24 03:50:08;;;;;;;10.43;6.00;;;;;;;;;;5029608;28;20025;-65
2022/03/24 03:52:34;;;;;;;9.93;5.75;;;;;;;;;;5029782;28;20029;-65
2022/03/24 03:54:59;;;;;;;10.02;5.80;;;;;;;;;;5029231;28;20389;-66
2022/03/24 03:57:25;;;;;;;9.65;5.45;;;;;;;;;;5029783;28;20029;-65
2022/03/24 03:59:50;;;;;;;8.88;5.32;;;;;;;;;;5031786;28;20104;-65
2022/03/24 04:02:16;;;;;;;11.32;5.60;;;;;;;;;;5032977;28;20049;-65
2022/03/24 04:04:41;;;;;;;9.20;4.72;;;;;;;;;;5032487;28;20095;-65
2022/03/24 04:07:07;;;;;;;9.57;5.20;;;;;;;;;;5033175;28;20037;-65
2022/03/24 04:09:32;;;;;;;10.07;5.05;;;;;;;;;;5032877;28;20033;-65
2022/03/24 04:11:57;;;;;;;8.52;4.95;;;;;;;;;;5033093;28;20435;-65
2022/03/24 04:14:25;;;;;;;9.05;4.70;;;;;;;;;;5032529;28;20029;-65
2022/03/24 04:16:51;;;;;;;9.25;5.22;;;;;;;;;;5033057;28;20036;-65
2022/03/24 04:19:19;;;;;;;8.52;4.90;;;;;;;;;;5032512;28;20030;-65
2022/03/24 04:21:45;;;;;;;9.18;4.55;;;;;;;;;;5032695;28;20543;-65
2022/03/24 04:24:10;;;;;;;7.88;4.68;;;;;;;;;;5032900;28;20037;-66
2022/03/24 04:26:36;;;;;;;8.80;4.70;;;;;;;;;;5032779;28;20021;-65
2022/03/24 04:29:02;;;;;;;10.38;4.45;;;;;;;;;;5033268;28;20083;-65
2022/03/24 04:31:28;;;;;;;9.63;4.70;;;;;;;;;;5032695;28;20083;-65
2022/03/24 04:33:54;;;;;;;8.48;4.75;;;;;;;;;;5032500;28;20037;-65
2022/03/24 04:36:20;;;;;;;12.43;5.25;;;;;;;;;;5032500;28;20377;-65
2022/03/24 04:38:45;;;;;;;10.40;4.38;;;;;;;;;;5032625;28;20086;-67
2022/03/24 04:41:11;;;;;;;8.43;4.38;;;;;;;;;;5032451;28;20030;-65
2022/03/24 04:43:37;;;;;;;10.20;4.55;;;;;;;;;;5032349;28;20032;-65
2022/03/24 04:46:03;;;;;;;7.78;4.30;;;;;;;;;;5032203;28;20469;-65
2022/03/24 04:48:35;;;;;;;8.82;4.38;;;;;;;;;;5032632;28;20037;-65
2022/03/24 04:51:01;;;;;;;9.73;4.20;;;;;;;;;;5032216;28;20021;-65
2022/03/24 04:53:27;;;;;;;8.20;4.03;;;;;;;;;;5032236;28;20030;-65
2022/03/24 04:55:52;;;;;;;12.95;4.47;;;;;;;;;;5031824;28;20116;-65
2022/03/24 04:58:18;;;;;;;8.27;4.13;;;;;;;;;;5032460;28;20071;-65
2022/03/24 05:00:43;;;;;;;10.65;4.53;;;;;;;;;;5032066;28;20021;-65
2022/03/24 05:03:09;;;;;;;7.85;4.10;;;;;;;;;;5031998;28;20032;-65
2022/03/24 05:05:34;;;;;;;8.40;4.40;;;;;;;;;;5031624;28;20053;-65
2022/03/24 05:08:00;;;;;;;13.45;4.28;;;;;;;;;;5032104;28;20033;-65
2022/03/24 05:10:25;;;;;;;8.05;4.25;;;;;;;;;;5031471;28;20025;-65
2022/03/24 05:12:51;;;;;;;7.13;4.13;;;;;;;;;;5031886;28;20036;-67
2022/03/24 05:15:16;;;;;;;7.53;4.53;;;;;;;;;;5031642;28;20075;-64
2022/03/24 05:17:42;;;;;;;7.75;4.28;;;;;;;;;;5031776;28;20374;-65
2022/03/24 05:20:08;;;;;;;10.70;4.18;;;;;;;;;;5031751;28;20550;-65
2022/03/24 05:22:35;;;;;;;8.45;4.50;;;;;;;;;;5031933;28;20033;-65
2022/03/24 05:25:01;;;;;;;7.15;4.05;;;;;;;;;;5031261;28;20029;-65
2022/03/24 05:27:26;;;;;;;10.13;4.90;;;;;;;;;;5031643;28;20100;-65
2022/03/24 05:29:52;;;;;;;11.07;4.53;;;;;;;;;;5031600;28;20117;-65
2022/03/24 05:32:17;;;;;;;9.80;4.13;;;;;;;;;;5031483;28;20032;-65
2022/03/24 05:34:44;;;;;;;8.88;4.45;;;;;;;;;;5031430;28;20194;-65
2022/03/24 05:37:09;;;;;;;7.55;4.28;;;;;;;;;;5031453;28;20029;-65
2022/03/24 05:39:35;;;;;;;8.65;4.18;;;;;;;;;;5031643;28;20032;-65
2022/03/24 05:42:02;;;;;;;8.95;4.05;;;;;;;;;;5029779;28;20033;-65
2022/03/24 05:44:29;;;;;;;8.85;4.45;;;;;;;;;;5031259;28;20121;-65
2022/03/24 05:46:55;;;;;;;8.32;4.13;;;;;;;;;;5030852;28;20021;-65
2022/03/24 05:49:21;;;;;;;8.60;4.30;;;;;;;;;;5031555;28;20032;-65
2022/03/24 05:51:47;;;;;;;8.07;4.60;;;;;;;;;;5031054;28;20489;-65
2022/03/24 05:54:15;;;;;;;11.00;4.80;;;;;;;;;;5031250;28;20033;-65
2022/03/24 05:56:41;;;;;;;16.38;5.28;;;;;;;;;;5030963;28;20029;-65
2022/03/24 05:59:07;;;;;;;12.15;5.05;;;;;;;;;;5031103;28;20025;-65
2022/03/24 06:01:34;;;;;;;8.43;4.18;;;;;;;;;;5030793;28;20392;-65
2022/03/24 06:04:00;;;;;;;12.82;5.03;;;;;;;;;;5031031;28;20103;-65
2022/03/24 06:06:29;;;;;;;9.27;5.05;;;;;;;;;;5030692;28;20025;-66
2022/03/24 06:08:57;;;;;;;11.50;5.07;;;;;;;;;;5031006;28;20460;-66
2022/03/24 06:11:23;;;;;;;18.65;5.53;;;;;;;;;;5030743;28;20105;-66
2022/03/24 06:13:49;;;;;;;18.20;5.68;;;;;;;;;;5030913;28;20416;-66
2022/03/24 06:16:14;;;;;;;17.55;5.47;;;;;;;;;;5030457;28;20032;-65
2022/03/24 06:18:40;;;;;;;14.15;5.22;;;;;;;;;;5030638;28;20271;-66
2022/03/24 06:21:07;;;;;;;15.27;5.53;;;;;;;;;;5029995;28;20033;-66
2022/03/24 06:23:33;;;;;;;16.25;5.28;;;;;;;;;;5030943;28;20055;-66
2022/03/24 06:25:59;;;;;;;19.25;6.22;;;;;;;;;;5030379;28;20460;-66
2022/03/24 06:28:25;;;;;;;18.70;5.93;;;;;;;;;;5030688;28;20025;-67
2022/03/24 06:30:51;;;;;;;14.80;5.30;;;;;;;;;;5030362;28;20033;-66
2022/03/24 06:33:16;;;;;;;17.55;6.20;;;;;;;;;;5030843;28;20120;-66
2022/03/24 06:35:46;;;;;;;17.30;5.65;;;;;;;;;;5030296;28;20105;-66
2022/03/24 06:38:13;;;;;;;14.48;5.65;;;;;;;;;;5030603;28;20112;-66
2022/03/24 06:40:39;;;;;;;14.27;5.28;;;;;;;;;;5030517;28;20033;-66
2022/03/24 06:43:06;;;;;;;14.27;5.80;;;;;;;;;;5030466;28;20036;-66
2022/03/24 06:45:32;;;;;;;24.88;6.05;;;;;;;;;;5030250;28;20396;-65
2022/03/24 06:47:58;;;;;;;16.20;5.88;;;;;;;;;;5030418;28;20028;-65
2022/03/24 06:50:23;;;;;;;21.23;5.85;;;;;;;;;;5030831;28;20025;-65
2022/03/24 06:52:49;;;;;;;17.70;6.30;;;;;;;;;;5029988;28;20029;-65
2022/03/24 06:55:14;;;;;;;15.10;6.18;;;;;;;;;;5030174;28;20026;-65
2022/03/24 06:57:41;;;;;;;13.82;6.00;;;;;;;;;;5030214;28;20303;-65
2022/03/24 07:00:07;;;;;;;19.55;5.82;;;;;;;;;;5030487;28;20113;-65
2022/03/24 07:02:33;;;;;;;17.45;5.88;;;;;;;;;;5030042;28;20027;-65
2022/03/24 07:04:59;;;;;;;14.88;5.60;;;;;;;;;;5029941;28;20120;-66
2022/03/24 07:07:27;;;;;;;16.27;5.63;;;;;;;;;;5029934;28;20100;-65
2022/03/24 07:09:53;;;;;;;9.43;4.53;;;;;;;;;;5030127;28;20022;-66
2022/03/24 07:12:21;;;;;;;10.05;4.32;;;;;;;;;;5029987;28;20029;-66
2022/03/24 07:14:47;;;;;;;10.82;4.53;;;;;;;;;;5029679;28;20033;-66
2022/03/24 07:17:14;;;;;;;12.77;4.97;;;;;;;;;;5029879;28;20113;-65
2022/03/24 07:19:40;;;;;;;13.88;4.93;;;;;;;;;;5030303;28;20064;-65
2022/03/24 07:22:06;;;;;;;14.63;4.68;;;;;;;;;;5029452;28;20059;-66
2022/03/24 07:24:31;;;;;;;11.27;6.10;;;;;;;;;;5030008;28;20694;-66
2022/03/24 07:26:57;;;;;;;11.55;6.32;;;;;;;;;;5029683;28;20021;-66
2022/03/24 07:29:24;;;;;;;13.38;6.50;;;;;;;;;;5029999;28;20508;-66
2022/03/24 07:31:49;;;;;;;12.73;6.93;;;;;;;;;;5029615;28;20109;-66
2022/03/24 07:34:15;;;;;;;14.65;7.43;;;;;;;;;;5033190;28;20124;-66
2022/03/24 07:36:41;;;;;;;17.40;6.70;;;;;;;;;;5033529;28;20056;-66
2022/03/24 07:39:06;;;;;;;10.18;5.72;;;;;;;;;;5033858;28;20032;-70
2022/03/24 07:41:32;;;;;;;9.57;5.55;;;;;;;;;;5033832;28;20026;-65
2022/03/24 07:43:58;;;;;;;10.95;5.93;;;;;;;;;;5033592;28;20044;-67
2022/03/24 07:46:24;;;;;;;11.77;5.57;;;;;;;;;;5033164;28;20505;-66
2022/03/24 07:48:49;;;;;;;13.02;5.30;;;;;;;;;;5033282;28;20030;-66
2022/03/24 07:51:16;;;;;;;11.45;5.18;;;;;;;;;;5033557;28;20034;-66
2022/03/24 07:53:47;;;;;;;15.30;5.30;;;;;;;;;;5033065;28;20035;-66
2022/03/24 07:56:17;;;;;;;11.65;5.47;;;;;;;;;;5033247;28;20029;-66
2022/03/24 07:58:43;;;;;;;7.65;4.90;;;;;;;;;;5033237;28;20036;-66
2022/03/24 08:01:11;;;;;;;8.85;5.00;;;;;;;;;;5033252;28;20110;-66
2022/03/24 08:03:36;;;;;;;9.65;5.07;;;;;;;;;;5033294;28;20052;-67
2022/03/24 08:06:02;;;;;;;8.82;4.90;;;;;;;;;;5033241;28;20481;-66
2022/03/24 08:08:29;;;;;;;7.90;4.78;;;;;;;;;;5032891;28;20113;-65
2022/03/24 08:10:55;;;;;;;8.77;5.38;;;;;;;;;;5033044;28;20454;-66
2022/03/24 08:13:22;;;;;;;10.95;5.10;;;;;;;;;;5032851;28;20291;-66
2022/03/24 08:15:48;;;;;;;12.05;4.97;;;;;;;;;;5032940;28;20562;-66
2022/03/24 08:18:15;;;;;;;10.88;5.03;;;;;;;;;;5032385;28;20105;-66
2022/03/24 08:20:43;;;;;;;11.80;4.82;;;;;;;;;;5031380;28;20021;-66
2022/03/24 08:23:09;;;;;;;10.10;4.88;;;;;;;;;;5032511;28;20392;-67
2022/03/24 08:25:36;;;;;;;11.02;5.55;;;;;;;;;;5032706;28;20029;-66
2022/03/24 08:28:02;;;;;;;10.15;5.38;;;;;;;;;;5032960;28;20036;-66
2022/03/24 08:30:28;;;;;;;11.15;5.18;;;;;;;;;;5032591;28;20017;-66
2022/03/24 08:32:53;;;;;;;13.23;5.80;;;;;;;;;;5032127;28;20025;-66
2022/03/24 08:35:19;;;;;;;15.85;6.03;;;;;;;;;;5032239;28;20044;-66
2022/03/24 08:37:44;;;;;;;11.88;6.63;;;;;;;;;;5032390;28;20029;-66
2022/03/24 08:40:11;;;;;;;11.80;5.97;;;;;;;;;;5032582;28;20080;-66
2022/03/24 08:42:37;;;;;;;11.88;5.75;;;;;;;;;;5032215;28;20096;-66
2022/03/24 08:45:09;;;;;;;14.35;6.75;;;;;;;;;;5031543;28;20022;-66
2022/03/24 08:47:34;;;;;;;12.75;6.47;;;;;;;;;;5032308;28;20036;-66
2022/03/24 08:50:00;;;;;;;13.13;6.40;;;;;;;;;;5032582;28;20056;-66
2022/03/24 08:52:27;;;;;;;9.93;5.88;;;;;;;;;;5032152;28;20034;-67
2022/03/24 08:54:54;;;;;;;9.02;6.05;;;;;;;;;;5032148;28;20162;-67
2022/03/24 08:57:26;;;;;;;8.60;5.43;;;;;;;;;;5032088;28;20107;-66
2022/03/24 09:00:00;;;;;;;17.13;6.05;;;;;;;;;;5032236;28;20139;-68
2022/03/24 09:02:28;;;;;;;14.52;5.63;;;;;;;;;;5032050;28;20029;-66
2022/03/24 09:04:54;;;;;;;14.25;6.10;;;;;;;;;;5031987;28;20057;-66
2022/03/24 09:07:19;;;;;;;12.60;5.53;;;;;;;;;;5031875;28;20041;-66
2022/03/24 09:09:45;;;;;;;10.18;5.47;;;;;;;;;;5031935;28;20021;-66
2022/03/24 09:12:11;;;;;;;11.90;5.82;;;;;;;;;;5031945;28;20029;-68
2022/03/24 09:14:39;;;;;;;11.65;6.40;;;;;;;;;;5031839;28;20065;-66
2022/03/24 09:17:05;;;;;;;12.90;6.25;;;;;;;;;;5031794;28;20029;-69
2022/03/24 09:19:31;;;;;;;15.02;6.35;;;;;;;;;;5031704;28;20034;-67
2022/03/24 09:21:57;;;;;;;10.20;5.60;;;;;;;;;;5031744;28;20029;-66
2022/03/24 09:24:23;;;;;;;9.27;5.13;;;;;;;;;;5031445;28;20029;-66
2022/03/24 09:26:48;;;;;;;9.27;5.70;;;;;;;;;;5031532;28;20028;-66
2022/03/24 09:29:14;;;;;;;8.25;4.88;;;;;;;;;;5031703;28;20025;-66
2022/03/24 09:31:40;;;;;;;9.95;5.05;;;;;;;;;;5031738;28;20509;-66
2022/03/24 09:34:05;;;;;;;8.93;4.80;;;;;;;;;;5031135;28;20033;-65
2022/03/24 09:36:31;;;;;;;9.02;4.78;;;;;;;;;;5031346;28;20037;-66
2022/03/24 09:38:56;;;;;;;9.73;4.78;;;;;;;;;;5031185;28;20071;-66
2022/03/24 09:41:26;;;;;;;9.00;4.93;;;;;;;;;;5031406;28;20404;-66
2022/03/24 09:43:52;;;;;;;10.37;4.90;;;;;;;;;;5031194;28;20029;-66
2022/03/24 09:46:20;;;;;;;12.15;5.00;;;;;;;;;;5031132;28;20044;-69
2022/03/24 09:48:45;;;;;;;9.32;4.70;;;;;;;;;;5030957;28;20030;-69
2022/03/24 09:51:11;;;;;;;14.68;5.25;;;;;;;;;;5031336;28;20056;-66
2022/03/24 09:53:39;;;;;;;9.23;4.45;;;;;;;;;;5029834;28;20044;-66
2022/03/24 09:56:06;;;;;;;10.93;4.97;;;;;;;;;;5030160;28;20030;-66
2022/03/24 09:58:31;;;;;;;6.93;4.53;;;;;;;;;;5031214;28;20342;-66
2022/03/24 10:00:57;;;;;;;8.45;4.57;;;;;;;;;;5031069;28;20494;-66
2022/03/24 10:03:22;;;;;;;8.45;4.68;;;;;;;;;;5030693;28;20473;-66
2022/03/24 10:06:00;;;;;;;8.15;4.40;;;;;;;;;;5030744;28;20037;-66
2022/03/24 10:08:27;;;;;;;8.65;4.32;;;;;;;;;;5031207;28;20029;-66
2022/03/24 10:11:00;;;;;;;8.95;4.50;;;;;;;;;;5030916;28;20436;-66
2022/03/24 10:13:44;;;;;;;8.85;4.53;;;;;;;;;;5030751;28;20033;-66
2022/03/24 10:16:12;;;;;;;6.15;3.92;;;;;;;;;;5030720;28;20031;-66
2022/03/24 10:18:55;;;;;;;7.95;4.15;;;;;;;;;;5029076;28;20112;-66
2022/03/24 10:21:23;;;;;;;7.57;3.90;;;;;;;;;;5030853;28;20038;-66
2022/03/24 10:23:48;;;;;;;9.45;3.92;;;;;;;;;;5030412;28;20129;-66
2022/03/24 10:26:14;;;;;;;8.00;4.07;;;;;;;;;;5030677;28;20033;-66
2022/03/24 10:29:07;;;;;;;8.32;3.80;;;;;;;;;;5030668;28;20033;-66
2022/03/24 10:31:37;;;;;;;6.65;3.70;;;;;;;;;;5030486;28;20128;-66
2022/03/24 10:34:04;;;;;;;9.75;4.20;;;;;;;;;;5030122;28;20125;-70
2022/03/24 10:36:30;;;;;;;8.25;4.30;;;;;;;;;;5030120;28;20101;-66
2022/03/24 10:39:00;;;;;;;7.78;3.92;;;;;;;;;;5030227;28;20457;-66
2022/03/24 10:41:27;;;;;;;8.90;3.50;;;;;;;;;;5030761;28;20627;-66
2022/03/24 10:43:55;;;;;;;10.07;3.75;;;;;;;;;;5030094;28;20064;-66
2022/03/24 10:46:28;;;;;;;8.85;3.78;;;;;;;;;;5030345;28;20063;-66
2022/03/24 10:48:54;;;;;;;6.68;3.20;;;;;;;;;;5030086;28;20412;-67
2022/03/24 10:51:33;;;;;;;9.13;3.55;;;;;;;;;;5030248;28;20030;-66
2022/03/24 10:54:25;;;;;;;5.90;3.50;;;;;;;;;;5030033;28;20037;-66
2022/03/24 10:57:08;;;;;;;6.47;3.47;;;;;;;;;;5024669;28;20436;-66
2022/03/24 10:59:39;;;;;;;8.90;3.90;;;;;;;;;;5030208;28;20136;-66
2022/03/24 11:02:05;;;;;;;7.38;4.05;;;;;;;;;;5030524;28;20025;-65
2022/03/24 11:04:31;;;;;;;8.35;3.72;;;;;;;;;;5029839;28;20081;-66
2022/03/24 11:06:56;;;;;;;8.85;3.88;;;;;;;;;;5030342;28;20090;-66
2022/03/24 11:09:29;;;;;;;9.98;4.75;;;;;;;;;;5032436;28;20029;-67
2022/03/24 11:12:27;;;;;;;6.90;4.20;;;;;;;;;;5033874;28;20551;-66
2022/03/24 11:14:58;;;;;;;13.18;4.28;;;;;;;;;;5033689;28;20566;-66
2022/03/24 11:17:24;;;;;;;;;;;;;;;;;;5034047;28;20021;-66
2022/03/24 11:20:15;;;;;;;7.35;4.90;;;;;;;;;;5033598;28;19913;-66
2022/03/24 11:22:58;;;;;;;10.95;4.78;;;;;;;;;;5025952;28;20037;-69
2022/03/24 11:25:25;;;;;;;8.43;4.63;;;;;;;;;;5033520;28;20068;-67
2022/03/24 11:27:53;;;;;;;6.93;4.82;;;;;;;;;;5033438;28;20449;-68
2022/03/24 11:30:20;;;;;;;8.25;4.50;;;;;;;;;;5033560;28;20122;-71
2022/03/24 11:32:47;;;;;;;8.55;4.97;;;;;;;;;;5033620;28;20507;-68
2022/03/24 11:35:13;;;;;;;7.57;5.00;;;;;;;;;;5033272;28;20030;-67
2022/03/24 11:37:40;;;;;;;9.38;5.20;;;;;;;;;;5033444;28;20112;-71
2022/03/24 11:40:10;;;;;;;7.82;4.70;;;;;;;;;;5033247;28;20033;-71
2022/03/24 11:42:43;;;;;;;10.77;4.97;;;;;;;;;;5033439;28;20657;-71
2022/03/24 11:45:18;;;;;;;9.65;4.65;;;;;;;;;;5033342;28;20037;-72
2022/03/24 11:47:59;;;;;;;10.68;5.00;;;;;;;;;;5033412;28;20033;-71
2022/03/24 11:50:36;;;;;;;9.52;5.72;;;;;;;;;;5033202;28;20037;-70
2022/03/24 11:53:28;;;;;;;10.23;5.20;;;;;;;;;;5033935;28;20032;-69
2022/03/24 11:56:00;;;;;;;8.82;5.25;;;;;;;;;;5031300;28;20273;-68
2022/03/24 11:58:38;;;;;;;8.48;5.88;;;;;;;;;;5033158;28;20021;-69
2022/03/24 12:01:19;;;;;;;11.48;6.63;;;;;;;;;;5032953;28;20026;-71
2022/03/24 12:03:57;;;;;;;11.73;5.93;;;;;;;;;;5033116;28;20041;-67
2022/03/24 12:06:51;;;;;;;8.57;5.40;;;;;;;;;;5032896;28;20065;-67
2022/03/24 12:09:22;;;;;;;12.23;5.15;;;;;;;;;;5027799;28;20045;-68
2022/03/24 12:11:52;;;;;;;;;;;;;;;;;;5033300;28;20025;-68
2022/03/24 12:14:36;;;;;;;9.77;5.43;;;;;;;;;;5032631;28;19983;-67
2022/03/24 12:17:16;;;;;;;9.23;5.80;;;;;;;;;;5032521;28;20465;-67
2022/03/24 12:19:53;;;;;;;8.77;5.43;;;;;;;;;;5031288;28;20109;-73
2022/03/24 12:22:32;;;;;;;8.52;5.70;;;;;;;;;;5033095;28;20033;-69
2022/03/24 12:25:00;;;;;;;10.10;5.32;;;;;;;;;;5032425;28;20075;-69
2022/03/24 12:27:31;;;;;;;12.05;5.70;;;;;;;;;;5032462;28;20031;-71
2022/03/24 12:30:12;;;;;;;;;;;;;;;;;;5032793;28;20040;-69
2022/03/24 12:32:39;;;;;;;13.77;5.93;;;;;;;;;;5032440;28;19948;-70
2022/03/24 12:35:06;;;;;;;10.52;5.72;;;;;;;;;;5032191;28;20568;-73
2022/03/24 12:37:31;;;;;;;9.98;6.00;;;;;;;;;;5032374;28;20502;-69
2022/03/24 12:40:07;;;;;;;8.90;5.63;;;;;;;;;;5032197;28;20021;-71
2022/03/24 12:42:49;;;;;;;8.63;5.18;;;;;;;;;;5032915;28;20278;-74
2022/03/24 12:45:38;;;;;;;8.65;5.70;;;;;;;;;;5032051;28;20404;-70
2022/03/24 12:48:12;;;;;;;9.18;5.88;;;;;;;;;;5032074;28;20030;-69
2022/03/24 12:50:37;;;;;;;11.35;5.65;;;;;;;;;;5032210;28;20033;-69
2022/03/24 12:53:07;;;;;;;9.88;5.53;;;;;;;;;;5031933;28;20036;-68
2022/03/24 12:55:33;;;;;;;8.32;5.40;;;;;;;;;;5032123;28;20569;-69
2022/03/24 12:58:10;;;;;;;8.75;5.22;;;;;;;;;;5030532;28;20056;-68
2022/03/24 13:00:41;;;;;;;8.52;5.65;;;;;;;;;;5031920;28;20037;-68
2022/03/24 13:03:07;;;;;;;9.40;5.60;;;;;;;;;;5031907;28;20030;-68
2022/03/24 13:05:35;;;;;;;10.27;5.75;;;;;;;;;;5031605;28;20045;-66
2022/03/24 13:08:03;;;;;;;10.40;6.03;;;;;;;;;;5031711;28;20100;-66
2022/03/24 13:10:34;;;;;;;9.25;5.82;;;;;;;;;;5031669;28;20457;-66
2022/03/24 13:13:04;;;;;;;11.25;5.30;;;;;;;;;;5032045;28;20099;-66
2022/03/24 13:15:34;;;;;;;;;;;;;;;;;;5032197;28;20120;-66
2022/03/24 13:18:05;;;;;;;14.05;6.03;;;;;;;;;;5031563;28;19943;-66
2022/03/24 13:20:42;;;;;;;10.15;5.80;;;;;;;;;;5031706;28;20032;-65
2022/03/24 13:23:10;;;;;;;8.90;5.97;;;;;;;;;;5031575;28;20025;-66
2022/03/24 13:25:37;;;;;;;13.10;6.18;;;;;;;;;;5031338;28;20112;-66
2022/03/24 13:28:04;;;;;;;10.68;5.78;;;;;;;;;;5031692;28;20222;-66
2022/03/24 13:30:31;;;;;;;10.10;5.90;;;;;;;;;;5031204;28;20022;-66
2022/03/24 13:33:06;;;;;;;10.35;6.03;;;;;;;;;;5031499;28;20064;-66
2022/03/24 13:35:38;;;;;;;8.38;5.28;;;;;;;;;;5031481;28;20057;-66
2022/03/24 13:38:09;;;;;;;8.65;5.38;;;;;;;;;;5031424;28;20034;-66
2022/03/24 13:40:49;;;;;;;8.40;5.90;;;;;;;;;;5031280;28;20026;-66
2022/03/24 13:43:16;;;;;;;8.77;5.30;;;;;;;;;;5031364;28;20026;-66
2022/03/24 13:45:41;;;;;;;10.38;5.65;;;;;;;;;;5031120;28;20036;-65
2022/03/24 13:48:07;;;;;;;12.20;5.93;;;;;;;;;;5031196;28;20033;-66
2022/03/24 13:50:32;;;;;;;11.68;6.13;;;;;;;;;;5031188;28;20116;-66
2022/03/24 13:52:59;;;;;;;9.60;5.38;;;;;;;;;;5031367;28;20021;-66
2022/03/24 13:55:28;;;;;;;8.20;5.13;;;;;;;;;;5031297;28;20088;-66
2022/03/24 13:58:11;;;;;;;8.90;5.28;;;;;;;;;;5030952;28;20026;-66
2022/03/24 14:00:42;;;;;;;8.88;5.13;;;;;;;;;;5030941;28;20113;-65
2022/03/24 14:03:12;;;;;;;11.98;5.40;;;;;;;;;;5031133;28;20372;-66
2022/03/24 14:06:01;;;;;;;9.02;4.65;;;;;;;;;;5030838;28;20045;-66
2022/03/24 14:08:26;;;;;;;6.85;5.05;;;;;;;;;;5030881;28;20440;-66
2022/03/24 14:11:23;;;;;;;8.63;4.95;;;;;;;;;;5030766;28;20025;-68
2022/03/24 14:13:51;;;;;;;9.70;4.70;;;;;;;;;;5022215;28;20052;-66
2022/03/24 14:16:28;;;;;;;8.48;4.72;;;;;;;;;;5030557;28;20029;-66
2022/03/24 14:19:03;;;;;;;8.68;5.05;;;;;;;;;;5030493;28;20033;-66
2022/03/24 14:22:02;;;;;;;7.25;4.60;;;;;;;;;;5030557;28;20029;-66
2022/03/24 14:24:35;;;;;;;8.68;5.00;;;;;;;;;;5030549;28;20405;-66
2022/03/24 14:27:00;;;;;;;11.43;5.18;;;;;;;;;;5030490;28;20108;-66
2022/03/24 14:29:26;;;;;;;9.35;4.30;;;;;;;;;;5030774;28;20311;-65
2022/03/24 14:32:13;;;;;;;8.20;5.00;;;;;;;;;;5030348;28;20030;-66
2022/03/24 14:34:39;;;;;;;6.85;4.60;;;;;;;;;;5030479;28;20037;-66
2022/03/24 14:37:11;;;;;;;7.95;4.63;;;;;;;;;;5030359;28;20401;-70
2022/03/24 14:39:53;;;;;;;12.50;5.47;;;;;;;;;;5030448;28;20473;-66
2022/03/24 14:42:19;;;;;;;9.65;5.10;;;;;;;;;;5029896;28;20492;-66
2022/03/24 14:44:47;;;;;;;10.55;5.07;;;;;;;;;;5030644;28;20029;-66